createdAt,value
2022-10-01T00:06:23.291Z,0.4816053511705686
2022-10-01T00:15:13.705Z,1.234113712374582
2022-10-01T00:22:00.438Z,0.9531772575250836
2022-10-01T00:35:17.425Z,1.4247491638795986
2022-10-01T00:41:46.433Z,1.451505016722408
2022-10-01T00:53:54.561Z,0.7324414715719063
2022-10-01T01:00:22.675Z,0.7859531772575251
2022-10-01T01:09:13.819Z,0.8729096989966555
2022-10-01T01:21:34.545Z,1.157190635451505
2022-10-01T01:28:02.272Z,1.5050167224080269
2022-10-01T01:34:30.694Z,0.6220735785953178
2022-10-01T01:45:46.745Z,0.9565217391304348
2022-10-01T01:55:41.664Z,0.9565217391304348
2022-10-01T02:02:10.239Z,0.6521739130434783
2022-10-01T02:08:38.281Z,0.8963210702341137
2022-10-01T02:15:05.842Z,1.3177257525083612
2022-10-01T02:21:34.305Z,1.608695652173913
2022-10-01T02:31:19.768Z,0.9698996655518395
2022-10-01T02:43:25.241Z,1.3645484949832776
2022-10-01T02:52:21.157Z,1.411371237458194
2022-10-01T03:01:37.151Z,0.6956521739130435
2022-10-01T03:08:04.150Z,1.5919732441471572
2022-10-01T03:14:31.998Z,1.0133779264214047
2022-10-01T03:20:59.137Z,0.882943143812709
2022-10-01T03:27:35.278Z,1.0434782608695652
2022-10-01T03:34:03.163Z,1.4448160535117056
2022-10-01T03:40:31.228Z,2.491638795986622
2022-10-01T03:46:59.360Z,1.5451505016722409
2022-10-01T03:53:27.211Z,1.2642140468227425
2022-10-01T03:59:55.008Z,1.7826086956521738
2022-10-01T04:06:23.992Z,1.608695652173913
2022-10-01T04:17:45.720Z,1.2909698996655519
2022-10-01T04:24:14.529Z,1.7123745819397993
2022-10-01T04:30:42.523Z,0.8093645484949833
2022-10-01T04:37:09.912Z,1.3311036789297659
2022-10-01T04:43:38.477Z,1.1505016722408026
2022-10-01T04:53:03.958Z,1.7826086956521738
2022-10-01T04:59:32.160Z,0.9096989966555183
2022-10-01T05:05:59.913Z,1.3311036789297659
2022-10-01T05:12:29.084Z,1.100334448160535
2022-10-01T05:18:57.099Z,0.5016722408026756
2022-10-01T05:25:25.674Z,1.140468227424749
2022-10-01T05:31:55.207Z,1.0334448160535117
2022-10-01T05:38:25.078Z,0.7023411371237458
2022-10-01T05:44:52.465Z,0.7959866220735786
2022-10-01T05:51:20.424Z,0.7892976588628763
2022-10-01T05:57:48.168Z,1.294314381270903
2022-10-01T06:04:15.296Z,0.5618729096989966
2022-10-01T06:10:44.144Z,0.8294314381270903
2022-10-01T06:17:11.966Z,0.6956521739130435
2022-10-01T06:23:50.657Z,1.0301003344481605
2022-10-01T06:30:18.737Z,0.5284280936454849
2022-10-01T06:39:49.913Z,0.08695652173913043
2022-10-01T06:50:47.707Z,0.705685618729097
2022-10-01T06:57:15.802Z,0.6688963210702341
2022-10-01T07:03:43.931Z,0.7558528428093646
2022-10-01T07:10:11.147Z,0.3879598662207358
2022-10-01T07:21:25.490Z,0.34782608695652173
2022-10-01T07:27:59.562Z,0.20066889632107024
2022-10-01T07:34:28.934Z,0.7625418060200669
2022-10-01T07:40:59.916Z,0.2608695652173913
2022-10-01T07:47:29.666Z,0.17391304347826086
2022-10-01T07:53:58.917Z,0.4214046822742475
2022-10-01T08:00:28.123Z,0.5284280936454849
2022-10-01T08:06:55.584Z,0.35451505016722407
2022-10-01T08:18:52.239Z,0.7023411371237458
2022-10-01T08:25:27.849Z,0.36789297658862874
2022-10-01T08:31:55.480Z,0.7157190635451505
2022-10-01T08:38:23.342Z,0.5217391304347826
2022-10-01T08:44:51.202Z,0.3745819397993311
2022-10-01T08:51:19.713Z,1.0836120401337792
2022-10-01T09:04:22.414Z,0.862876254180602
2022-10-01T09:10:53.446Z,0.08695652173913043
2022-10-01T09:17:22.077Z,0.6622073578595318
2022-10-01T09:23:55.919Z,0.842809364548495
2022-10-01T09:30:30.382Z,0.6086956521739131
2022-10-01T09:37:13.737Z,0.5953177257525084
2022-10-01T09:43:46.089Z,1.1137123745819397
2022-10-01T09:55:44.879Z,1.3812709030100334
2022-10-01T10:02:15.637Z,0.9464882943143813
2022-10-01T10:08:46.427Z,1.3043478260869565
2022-10-01T10:15:16.878Z,1.157190635451505
2022-10-01T10:21:47.538Z,1.080267558528428
2022-10-01T10:28:22.804Z,1.2408026755852843
2022-10-01T10:34:57.025Z,0.939799331103679
2022-10-01T10:41:33.198Z,1.3444816053511706
2022-10-01T10:50:35.465Z,1.2474916387959867
2022-10-01T10:57:05.140Z,1.1839464882943145
2022-10-01T11:03:43.724Z,1.7792642140468227
2022-10-01T11:10:13.893Z,1.8093645484949832
2022-10-01T11:16:45.671Z,1.765886287625418
2022-10-01T11:23:14.977Z,1.5953177257525084
2022-10-01T11:35:54.599Z,1.1438127090301002
2022-10-01T11:42:25.050Z,1.745819397993311
2022-10-01T11:53:06.008Z,1.842809364548495
2022-10-01T12:01:37.980Z,1.8729096989966556
2022-10-01T12:08:08.606Z,1.6555183946488294
2022-10-01T12:16:19.089Z,1.6588628762541806
2022-10-01T12:24:44.823Z,1.3177257525083612
2022-10-01T12:35:34.146Z,2.4147157190635453
2022-10-01T12:42:03.883Z,1.2040133779264215
2022-10-01T12:48:37.419Z,2.301003344481605
2022-10-01T12:59:15.608Z,0.8327759197324415
2022-10-01T13:05:46.560Z,0.5083612040133779
2022-10-01T13:13:07.767Z,0.6889632107023411
2022-10-01T13:19:37.893Z,0.862876254180602
2022-10-01T13:26:08.287Z,0.43478260869565216
2022-10-01T13:38:30.812Z,0.8695652173913043
2022-10-01T13:45:01.109Z,0.8461538461538461
2022-10-01T13:55:11.357Z,0.3411371237458194
2022-10-01T14:01:44.319Z,0.5150501672240803
2022-10-01T14:13:15.640Z,0.7558528428093646
2022-10-01T14:19:47.008Z,0.7090301003344481
2022-10-01T14:26:21.417Z,1.4381270903010033
2022-10-01T14:32:52.790Z,0.8528428093645485
2022-10-01T14:39:24.225Z,0.6153846153846154
2022-10-01T14:45:56.880Z,0.4816053511705686
2022-10-01T14:52:28.250Z,1.0
2022-10-01T15:04:37.457Z,1.1638795986622072
2022-10-01T15:11:08.495Z,1.137123745819398
2022-10-01T15:17:37.660Z,1.0903010033444815
2022-10-01T15:24:07.915Z,1.2374581939799332
2022-10-01T15:30:40.210Z,1.2642140468227425
2022-10-01T15:37:08.755Z,1.0434782608695652
2022-10-01T15:43:40.819Z,1.0434782608695652
2022-10-01T15:50:16.008Z,2.1638795986622075
2022-10-01T15:56:50.245Z,2.551839464882943
2022-10-01T16:03:20.082Z,1.9331103678929766
2022-10-01T16:09:47.889Z,2.321070234113712
2022-10-01T16:16:16.312Z,1.6722408026755853
2022-10-01T16:26:53.190Z,2.277591973244147
2022-10-01T16:33:21.109Z,1.9966555183946488
2022-10-01T16:39:49.081Z,2.237458193979933
2022-10-01T16:49:02.150Z,1.4849498327759196
2022-10-01T16:57:10.324Z,1.919732441471572
2022-10-01T17:03:38.399Z,1.354515050167224
2022-10-01T17:10:06.108Z,2.120401337792642
2022-10-01T17:16:34.763Z,1.5117056856187292
2022-10-01T17:23:03.897Z,1.4882943143812708
2022-10-01T17:29:32.890Z,0.8093645484949833
2022-10-01T17:36:01.341Z,0.9899665551839465
2022-10-01T17:42:31.073Z,1.3578595317725752
2022-10-01T17:48:58.946Z,1.3110367892976589
2022-10-01T17:55:27.487Z,1.8193979933110367
2022-10-01T18:01:56.009Z,2.1672240802675584
2022-10-01T18:12:44.512Z,0.9632107023411371
2022-10-01T18:19:52.385Z,1.3377926421404682
2022-10-01T18:26:21.309Z,1.4581939799331103
2022-10-01T18:32:51.789Z,0.8361204013377926
2022-10-01T18:42:01.965Z,2.0869565217391304
2022-10-01T18:56:58.844Z,2.1103678929765888
2022-10-01T19:15:36.188Z,1.7090301003344481
2022-10-01T19:32:09.228Z,2.4816053511705687
2022-10-01T19:49:41.214Z,2.0066889632107023
2022-10-01T20:10:40.592Z,2.648829431438127
2022-10-01T20:42:01.786Z,2.9364548494983276
2022-10-01T21:13:41.148Z,2.862876254180602
2022-10-01T21:31:00.375Z,2.528428093645485
2022-10-01T21:55:33.162Z,2.42809364548495
2022-10-01T22:23:07.468Z,3.290969899665552
2022-10-01T22:41:50.621Z,2.237458193979933
2022-10-01T22:57:08.862Z,2.923076923076923
2022-10-01T23:04:33.289Z,1.839464882943144
2022-10-01T23:12:48.098Z,2.4013377926421406
2022-10-01T23:19:15.212Z,1.862876254180602
2022-10-01T23:25:46.707Z,2.2675585284280935
2022-10-01T23:32:14.715Z,2.0100334448160537
2022-10-01T23:38:41.523Z,2.762541806020067
2022-10-01T23:56:50.621Z,1.765886287625418
